sensor_id;sensor_type;location;lat;lon;timestamp;P1;durP1;ratioP1;P2;durP2;ratioP2
3547;SDS011;1788;49.400;11.092;2024-03-06T00:02:02;19.77;;;11.93;;
3547;SDS011;1788;49.400;11.092;2024-03-06T00:04:29;24.43;;;12.53;;
3547;SDS011;1788;49.400;11.092;2024-03-06T00:06:56;25.53;;;12.17;;
3547;SDS011;1788;49.400;11.092;2024-03-06T00:09:23;21.83;;;11.83;;
3547;SDS011;1788;49.400;11.092;2024-03-06T00:11:50;20.10;;;12.10;;
3547;SDS011;1788;49.400;11.092;2024-03-06T00:14:17;23.03;;;12.03;;
3547;SDS011;1788;49.400;11.092;2024-03-06T00:16:44;18.70;;;11.70;;
3547;SDS011;1788;49.400;11.092;2024-03-06T00:19:11;22.03;;;12.17;;
3547;SDS011;1788;49.400;11.092;2024-03-06T00:21:38;24.70;;;12.03;;
3547;SDS011;1788;49.400;11.092;2024-03-06T00:24:05;26.23;;;12.20;;
3547;SDS011;1788;49.400;11.092;2024-03-06T00:26:32;21.00;;;12.60;;
3547;SDS011;1788;49.400;11.092;2024-03-06T00:28:59;21.00;;;11.83;;
3547;SDS011;1788;49.400;11.092;2024-03-06T00:31:26;21.80;;;12.17;;
3547;SDS011;1788;49.400;11.092;2024-03-06T00:33:53;20.00;;;11.43;;
3547;SDS011;1788;49.400;11.092;2024-03-06T00:36:19;26.30;;;13.23;;
3547;SDS011;1788;49.400;11.092;2024-03-06T00:38:47;21.60;;;12.03;;
3547;SDS011;1788;49.400;11.092;2024-03-06T00:41:13;21.90;;;11.47;;
3547;SDS011;1788;49.400;11.092;2024-03-06T00:43:41;23.47;;;12.43;;
3547;SDS011;1788;49.400;11.092;2024-03-06T00:46:08;23.90;;;12.47;;
3547;SDS011;1788;49.400;11.092;2024-03-06T00:48:35;25.00;;;12.47;;
3547;SDS011;1788;49.400;11.092;2024-03-06T00:51:02;24.43;;;11.73;;
3547;SDS011;1788;49.400;11.092;2024-03-06T00:53:29;21.83;;;11.60;;
3547;SDS011;1788;49.400;11.092;2024-03-06T00:55:56;23.70;;;12.57;;
3547;SDS011;1788;49.400;11.092;2024-03-06T00:58:23;25.60;;;12.67;;
3547;SDS011;1788;49.400;11.092;2024-03-06T01:00:50;28.00;;;13.67;;
3547;SDS011;1788;49.400;11.092;2024-03-06T01:03:17;27.63;;;13.53;;
3547;SDS011;1788;49.400;11.092;2024-03-06T01:05:45;29.23;;;13.77;;
3547;SDS011;1788;49.400;11.092;2024-03-06T01:08:12;34.17;;;16.23;;
3547;SDS011;1788;49.400;11.092;2024-03-06T01:10:38;38.97;;;16.60;;
3547;SDS011;1788;49.400;11.092;2024-03-06T01:13:06;26.17;;;13.30;;
3547;SDS011;1788;49.400;11.092;2024-03-06T01:15:32;30.77;;;14.60;;
3547;SDS011;1788;49.400;11.092;2024-03-06T01:18:00;26.53;;;13.33;;
3547;SDS011;1788;49.400;11.092;2024-03-06T01:20:26;24.90;;;13.10;;
3547;SDS011;1788;49.400;11.092;2024-03-06T01:22:54;23.67;;;12.33;;
3547;SDS011;1788;49.400;11.092;2024-03-06T01:25:20;26.93;;;14.00;;
3547;SDS011;1788;49.400;11.092;2024-03-06T01:27:48;40.63;;;17.50;;
3547;SDS011;1788;49.400;11.092;2024-03-06T01:30:14;30.97;;;16.27;;
3547;SDS011;1788;49.400;11.092;2024-03-06T01:32:42;38.10;;;16.43;;
3547;SDS011;1788;49.400;11.092;2024-03-06T01:35:08;36.17;;;16.17;;
3547;SDS011;1788;49.400;11.092;2024-03-06T01:37:35;28.30;;;14.10;;
3547;SDS011;1788;49.400;11.092;2024-03-06T01:40:02;29.10;;;14.27;;
3547;SDS011;1788;49.400;11.092;2024-03-06T01:42:28;23.30;;;13.80;;
3547;SDS011;1788;49.400;11.092;2024-03-06T01:44:55;27.50;;;13.43;;
3547;SDS011;1788;49.400;11.092;2024-03-06T01:47:22;26.23;;;14.20;;
3547;SDS011;1788;49.400;11.092;2024-03-06T01:49:49;26.00;;;13.33;;
3547;SDS011;1788;49.400;11.092;2024-03-06T01:52:16;30.13;;;14.80;;
3547;SDS011;1788;49.400;11.092;2024-03-06T01:54:44;29.90;;;14.17;;
3547;SDS011;1788;49.400;11.092;2024-03-06T01:57:11;27.90;;;14.23;;
3547;SDS011;1788;49.400;11.092;2024-03-06T01:59:38;28.47;;;12.87;;
3547;SDS011;1788;49.400;11.092;2024-03-06T02:02:07;23.47;;;12.97;;
3547;SDS011;1788;49.400;11.092;2024-03-06T02:04:34;26.33;;;14.73;;
3547;SDS011;1788;49.400;11.092;2024-03-06T02:07:01;26.27;;;12.63;;
3547;SDS011;1788;49.400;11.092;2024-03-06T02:09:28;29.90;;;14.87;;
3547;SDS011;1788;49.400;11.092;2024-03-06T02:11:55;23.77;;;13.97;;
3547;SDS011;1788;49.400;11.092;2024-03-06T02:14:23;28.87;;;14.47;;
3547;SDS011;1788;49.400;11.092;2024-03-06T02:16:49;25.80;;;14.17;;
3547;SDS011;1788;49.400;11.092;2024-03-06T02:19:16;30.60;;;14.63;;
3547;SDS011;1788;49.400;11.092;2024-03-06T02:21:43;31.73;;;15.83;;
3547;SDS011;1788;49.400;11.092;2024-03-06T02:24:10;24.83;;;14.07;;
3547;SDS011;1788;49.400;11.092;2024-03-06T02:26:37;32.10;;;14.20;;
3547;SDS011;1788;49.400;11.092;2024-03-06T02:29:06;29.90;;;14.83;;
3547;SDS011;1788;49.400;11.092;2024-03-06T02:31:31;30.03;;;16.13;;
3547;SDS011;1788;49.400;11.092;2024-03-06T02:33:58;33.60;;;15.90;;
3547;SDS011;1788;49.400;11.092;2024-03-06T02:36:25;30.87;;;15.53;;
3547;SDS011;1788;49.400;11.092;2024-03-06T02:38:52;29.27;;;15.07;;
3547;SDS011;1788;49.400;11.092;2024-03-06T02:41:19;33.47;;;15.90;;
3547;SDS011;1788;49.400;11.092;2024-03-06T02:43:46;29.63;;;15.37;;
3547;SDS011;1788;49.400;11.092;2024-03-06T02:46:13;28.07;;;14.37;;
3547;SDS011;1788;49.400;11.092;2024-03-06T02:48:40;29.23;;;15.43;;
3547;SDS011;1788;49.400;11.092;2024-03-06T02:51:06;32.43;;;16.13;;
3547;SDS011;1788;49.400;11.092;2024-03-06T02:53:33;30.37;;;16.10;;
3547;SDS011;1788;49.400;11.092;2024-03-06T02:55:59;35.23;;;16.37;;
3547;SDS011;1788;49.400;11.092;2024-03-06T02:58:26;32.73;;;17.10;;
3547;SDS011;1788;49.400;11.092;2024-03-06T03:00:53;30.97;;;17.03;;
3547;SDS011;1788;49.400;11.092;2024-03-06T03:03:19;36.73;;;16.77;;
3547;SDS011;1788;49.400;11.092;2024-03-06T03:05:47;34.10;;;17.30;;
3547;SDS011;1788;49.400;11.092;2024-03-06T03:08:13;31.47;;;15.20;;
3547;SDS011;1788;49.400;11.092;2024-03-06T03:10:41;29.73;;;16.60;;
3547;SDS011;1788;49.400;11.092;2024-03-06T03:13:07;32.93;;;17.80;;
3547;SDS011;1788;49.400;11.092;2024-03-06T03:15:35;32.43;;;16.97;;
3547;SDS011;1788;49.400;11.092;2024-03-06T03:18:01;35.37;;;16.40;;
3547;SDS011;1788;49.400;11.092;2024-03-06T03:20:29;40.90;;;17.17;;
3547;SDS011;1788;49.400;11.092;2024-03-06T03:22:55;35.97;;;16.77;;
3547;SDS011;1788;49.400;11.092;2024-03-06T03:25:22;37.63;;;16.90;;
3547;SDS011;1788;49.400;11.092;2024-03-06T03:27:49;38.47;;;18.13;;
3547;SDS011;1788;49.400;11.092;2024-03-06T03:30:17;43.20;;;18.80;;
3547;SDS011;1788;49.400;11.092;2024-03-06T03:32:42;38.27;;;18.50;;
3547;SDS011;1788;49.400;11.092;2024-03-06T03:35:09;42.80;;;18.40;;
3547;SDS011;1788;49.400;11.092;2024-03-06T03:37:36;41.00;;;17.83;;
3547;SDS011;1788;49.400;11.092;2024-03-06T03:40:02;35.00;;;16.97;;
3547;SDS011;1788;49.400;11.092;2024-03-06T03:42:29;39.17;;;17.77;;
3547;SDS011;1788;49.400;11.092;2024-03-06T03:44:56;46.63;;;20.17;;
3547;SDS011;1788;49.400;11.092;2024-03-06T03:47:23;39.87;;;18.97;;
3547;SDS011;1788;49.400;11.092;2024-03-06T03:49:50;36.27;;;18.37;;
3547;SDS011;1788;49.400;11.092;2024-03-06T03:52:18;40.07;;;17.67;;
3547;SDS011;1788;49.400;11.092;2024-03-06T03:54:44;34.40;;;16.60;;
3547;SDS011;1788;49.400;11.092;2024-03-06T03:57:11;38.50;;;18.67;;
3547;SDS011;1788;49.400;11.092;2024-03-06T03:59:38;41.00;;;18.03;;
3547;SDS011;1788;49.400;11.092;2024-03-06T04:02:04;46.90;;;20.23;;
3547;SDS011;1788;49.400;11.092;2024-03-06T04:04:31;41.70;;;20.37;;
3547;SDS011;1788;49.400;11.092;2024-03-06T04:06:57;41.10;;;19.93;;
3547;SDS011;1788;49.400;11.092;2024-03-06T04:09:24;38.67;;;18.93;;
3547;SDS011;1788;49.400;11.092;2024-03-06T04:11:51;37.10;;;18.50;;
3547;SDS011;1788;49.400;11.092;2024-03-06T04:14:17;43.67;;;19.60;;
3547;SDS011;1788;49.400;11.092;2024-03-06T04:16:45;44.37;;;20.23;;
3547;SDS011;1788;49.400;11.092;2024-03-06T04:19:10;45.23;;;20.57;;
3547;SDS011;1788;49.400;11.092;2024-03-06T04:24:04;37.77;;;18.43;;
3547;SDS011;1788;49.400;11.092;2024-03-06T04:26:32;45.50;;;20.07;;
3547;SDS011;1788;49.400;11.092;2024-03-06T04:28:58;43.37;;;19.53;;
3547;SDS011;1788;49.400;11.092;2024-03-06T04:31:26;40.97;;;17.80;;
3547;SDS011;1788;49.400;11.092;2024-03-06T04:33:53;39.73;;;18.83;;
3547;SDS011;1788;49.400;11.092;2024-03-06T04:36:20;45.47;;;19.90;;
3547;SDS011;1788;49.400;11.092;2024-03-06T04:38:47;40.83;;;18.50;;
3547;SDS011;1788;49.400;11.092;2024-03-06T04:41:14;48.57;;;20.13;;
3547;SDS011;1788;49.400;11.092;2024-03-06T04:43:41;46.97;;;20.70;;
3547;SDS011;1788;49.400;11.092;2024-03-06T04:46:12;41.60;;;18.60;;
3547;SDS011;1788;49.400;11.092;2024-03-06T04:48:35;47.00;;;21.13;;
3547;SDS011;1788;49.400;11.092;2024-03-06T04:51:02;44.07;;;20.97;;
3547;SDS011;1788;49.400;11.092;2024-03-06T04:53:29;43.07;;;21.53;;
3547;SDS011;1788;49.400;11.092;2024-03-06T04:55:57;50.30;;;21.87;;
3547;SDS011;1788;49.400;11.092;2024-03-06T04:58:23;44.07;;;21.73;;
3547;SDS011;1788;49.400;11.092;2024-03-06T05:00:51;47.87;;;21.23;;
3547;SDS011;1788;49.400;11.092;2024-03-06T05:03:17;46.87;;;20.00;;
3547;SDS011;1788;49.400;11.092;2024-03-06T05:05:44;44.77;;;21.03;;
3547;SDS011;1788;49.400;11.092;2024-03-06T05:08:10;45.90;;;19.70;;
3547;SDS011;1788;49.400;11.092;2024-03-06T05:10:37;43.07;;;19.40;;
3547;SDS011;1788;49.400;11.092;2024-03-06T05:13:04;43.77;;;20.17;;
3547;SDS011;1788;49.400;11.092;2024-03-06T05:15:30;43.23;;;20.50;;
3547;SDS011;1788;49.400;11.092;2024-03-06T05:17:57;48.57;;;21.10;;
3547;SDS011;1788;49.400;11.092;2024-03-06T05:20:24;40.60;;;18.90;;
3547;SDS011;1788;49.400;11.092;2024-03-06T05:22:51;41.87;;;17.53;;
3547;SDS011;1788;49.400;11.092;2024-03-06T05:25:17;45.83;;;21.77;;
3547;SDS011;1788;49.400;11.092;2024-03-06T05:27:44;45.13;;;19.83;;
3547;SDS011;1788;49.400;11.092;2024-03-06T05:30:11;35.33;;;17.73;;
3547;SDS011;1788;49.400;11.092;2024-03-06T05:32:37;40.17;;;18.40;;
3547;SDS011;1788;49.400;11.092;2024-03-06T05:35:04;48.33;;;21.20;;
3547;SDS011;1788;49.400;11.092;2024-03-06T05:37:31;46.27;;;18.70;;
3547;SDS011;1788;49.400;11.092;2024-03-06T05:39:57;48.50;;;21.33;;
3547;SDS011;1788;49.400;11.092;2024-03-06T05:42:24;43.07;;;20.30;;
3547;SDS011;1788;49.400;11.092;2024-03-06T05:44:50;45.67;;;21.13;;
3547;SDS011;1788;49.400;11.092;2024-03-06T05:47:18;49.33;;;22.70;;
3547;SDS011;1788;49.400;11.092;2024-03-06T05:49:45;49.67;;;22.53;;
3547;SDS011;1788;49.400;11.092;2024-03-06T05:52:12;50.63;;;21.50;;
3547;SDS011;1788;49.400;11.092;2024-03-06T05:54:38;58.37;;;23.33;;
3547;SDS011;1788;49.400;11.092;2024-03-06T05:57:05;57.23;;;24.17;;
3547;SDS011;1788;49.400;11.092;2024-03-06T05:59:31;50.17;;;21.27;;
3547;SDS011;1788;49.400;11.092;2024-03-06T06:01:58;45.77;;;21.00;;
3547;SDS011;1788;49.400;11.092;2024-03-06T06:04:25;50.50;;;21.17;;
3547;SDS011;1788;49.400;11.092;2024-03-06T06:06:51;52.90;;;21.70;;
3547;SDS011;1788;49.400;11.092;2024-03-06T06:09:18;49.97;;;22.07;;
3547;SDS011;1788;49.400;11.092;2024-03-06T06:11:44;48.63;;;22.23;;
3547;SDS011;1788;49.400;11.092;2024-03-06T06:14:11;44.17;;;19.60;;
3547;SDS011;1788;49.400;11.092;2024-03-06T06:16:38;48.57;;;21.20;;
3547;SDS011;1788;49.400;11.092;2024-03-06T06:19:04;44.80;;;21.97;;
3547;SDS011;1788;49.400;11.092;2024-03-06T06:21:31;53.00;;;23.47;;
3547;SDS011;1788;49.400;11.092;2024-03-06T06:23:58;47.90;;;21.50;;
3547;SDS011;1788;49.400;11.092;2024-03-06T06:26:24;54.30;;;23.10;;
3547;SDS011;1788;49.400;11.092;2024-03-06T06:28:51;54.50;;;22.47;;
3547;SDS011;1788;49.400;11.092;2024-03-06T06:31:17;48.73;;;22.20;;
3547;SDS011;1788;49.400;11.092;2024-03-06T06:33:44;49.90;;;23.87;;
3547;SDS011;1788;49.400;11.092;2024-03-06T06:36:11;58.97;;;24.90;;
3547;SDS011;1788;49.400;11.092;2024-03-06T06:38:37;50.30;;;23.37;;
3547;SDS011;1788;49.400;11.092;2024-03-06T06:41:04;54.77;;;23.03;;
3547;SDS011;1788;49.400;11.092;2024-03-06T06:43:30;45.73;;;22.57;;
3547;SDS011;1788;49.400;11.092;2024-03-06T06:45:57;51.70;;;23.00;;
3547;SDS011;1788;49.400;11.092;2024-03-06T06:48:24;56.27;;;22.90;;
3547;SDS011;1788;49.400;11.092;2024-03-06T06:50:50;50.37;;;21.63;;
3547;SDS011;1788;49.400;11.092;2024-03-06T06:53:18;55.03;;;22.53;;
3547;SDS011;1788;49.400;11.092;2024-03-06T06:55:45;53.53;;;21.53;;
3547;SDS011;1788;49.400;11.092;2024-03-06T06:58:12;62.63;;;24.13;;
3547;SDS011;1788;49.400;11.092;2024-03-06T07:00:39;57.67;;;23.27;;
3547;SDS011;1788;49.400;11.092;2024-03-06T07:03:06;55.63;;;21.13;;
3547;SDS011;1788;49.400;11.092;2024-03-06T07:05:33;51.87;;;21.77;;
3547;SDS011;1788;49.400;11.092;2024-03-06T07:08:00;56.33;;;25.07;;
3547;SDS011;1788;49.400;11.092;2024-03-06T07:10:27;45.73;;;21.53;;
3547;SDS011;1788;49.400;11.092;2024-03-06T07:12:54;48.50;;;21.70;;
3547;SDS011;1788;49.400;11.092;2024-03-06T07:15:20;51.80;;;21.20;;
3547;SDS011;1788;49.400;11.092;2024-03-06T07:17:47;52.87;;;20.90;;
3547;SDS011;1788;49.400;11.092;2024-03-06T07:20:14;45.50;;;19.27;;
3547;SDS011;1788;49.400;11.092;2024-03-06T07:22:41;51.20;;;23.53;;
3547;SDS011;1788;49.400;11.092;2024-03-06T07:25:08;46.73;;;21.53;;
3547;SDS011;1788;49.400;11.092;2024-03-06T07:27:35;44.90;;;20.13;;
3547;SDS011;1788;49.400;11.092;2024-03-06T07:30:02;50.27;;;21.63;;
3547;SDS011;1788;49.400;11.092;2024-03-06T07:32:29;48.07;;;21.13;;
3547;SDS011;1788;49.400;11.092;2024-03-06T07:34:56;54.37;;;22.43;;
3547;SDS011;1788;49.400;11.092;2024-03-06T07:37:22;54.87;;;22.60;;
3547;SDS011;1788;49.400;11.092;2024-03-06T07:39:49;48.73;;;20.70;;
3547;SDS011;1788;49.400;11.092;2024-03-06T07:42:15;42.87;;;19.10;;
3547;SDS011;1788;49.400;11.092;2024-03-06T07:44:43;45.83;;;20.33;;
3547;SDS011;1788;49.400;11.092;2024-03-06T07:47:09;40.30;;;17.80;;
3547;SDS011;1788;49.400;11.092;2024-03-06T07:49:36;43.07;;;19.30;;
3547;SDS011;1788;49.400;11.092;2024-03-06T07:52:03;38.00;;;17.57;;
3547;SDS011;1788;49.400;11.092;2024-03-06T07:54:29;38.23;;;18.40;;
3547;SDS011;1788;49.400;11.092;2024-03-06T07:56:57;33.70;;;15.50;;
3547;SDS011;1788;49.400;11.092;2024-03-06T07:59:23;36.70;;;16.57;;
3547;SDS011;1788;49.400;11.092;2024-03-06T08:01:51;41.03;;;17.97;;
3547;SDS011;1788;49.400;11.092;2024-03-06T08:04:17;37.27;;;15.90;;
3547;SDS011;1788;49.400;11.092;2024-03-06T08:06:45;34.47;;;15.60;;
3547;SDS011;1788;49.400;11.092;2024-03-06T08:09:11;37.63;;;15.17;;
3547;SDS011;1788;49.400;11.092;2024-03-06T08:11:38;36.80;;;16.93;;
3547;SDS011;1788;49.400;11.092;2024-03-06T08:14:06;49.97;;;20.87;;
3547;SDS011;1788;49.400;11.092;2024-03-06T08:16:31;42.30;;;18.87;;
3547;SDS011;1788;49.400;11.092;2024-03-06T08:18:59;40.07;;;18.83;;
3547;SDS011;1788;49.400;11.092;2024-03-06T08:21:26;39.13;;;16.57;;
3547;SDS011;1788;49.400;11.092;2024-03-06T08:23:53;37.33;;;16.33;;
3547;SDS011;1788;49.400;11.092;2024-03-06T08:26:22;64.37;;;26.83;;
3547;SDS011;1788;49.400;11.092;2024-03-06T08:28:48;37.80;;;18.13;;
3547;SDS011;1788;49.400;11.092;2024-03-06T08:31:15;43.20;;;20.07;;
3547;SDS011;1788;49.400;11.092;2024-03-06T08:33:42;40.83;;;16.97;;
3547;SDS011;1788;49.400;11.092;2024-03-06T08:36:09;37.80;;;17.10;;
3547;SDS011;1788;49.400;11.092;2024-03-06T08:38:36;34.10;;;15.17;;
3547;SDS011;1788;49.400;11.092;2024-03-06T08:41:04;37.77;;;17.43;;
3547;SDS011;1788;49.400;11.092;2024-03-06T08:43:30;23.33;;;12.90;;
3547;SDS011;1788;49.400;11.092;2024-03-06T08:45:57;35.23;;;15.60;;
3547;SDS011;1788;49.400;11.092;2024-03-06T08:48:24;37.37;;;15.67;;
3547;SDS011;1788;49.400;11.092;2024-03-06T08:50:50;30.93;;;14.67;;
3547;SDS011;1788;49.400;11.092;2024-03-06T08:53:17;33.80;;;15.60;;
3547;SDS011;1788;49.400;11.092;2024-03-06T08:55:43;29.17;;;14.47;;
3547;SDS011;1788;49.400;11.092;2024-03-06T08:58:10;31.33;;;15.03;;
3547;SDS011;1788;49.400;11.092;2024-03-06T09:00:37;35.27;;;14.93;;
3547;SDS011;1788;49.400;11.092;2024-03-06T09:03:03;30.00;;;15.03;;
3547;SDS011;1788;49.400;11.092;2024-03-06T09:05:30;32.20;;;14.63;;
3547;SDS011;1788;49.400;11.092;2024-03-06T09:07:56;30.20;;;14.77;;
3547;SDS011;1788;49.400;11.092;2024-03-06T09:10:24;34.73;;;15.37;;
3547;SDS011;1788;49.400;11.092;2024-03-06T09:12:50;29.97;;;14.63;;
3547;SDS011;1788;49.400;11.092;2024-03-06T09:15:18;34.10;;;15.93;;
3547;SDS011;1788;49.400;11.092;2024-03-06T09:17:45;32.93;;;15.27;;
3547;SDS011;1788;49.400;11.092;2024-03-06T09:20:11;34.37;;;15.23;;
3547;SDS011;1788;49.400;11.092;2024-03-06T09:22:38;29.67;;;15.47;;
3547;SDS011;1788;49.400;11.092;2024-03-06T09:25:05;30.93;;;15.37;;
3547;SDS011;1788;49.400;11.092;2024-03-06T09:27:31;30.20;;;14.10;;
3547;SDS011;1788;49.400;11.092;2024-03-06T09:29:58;32.07;;;14.00;;
3547;SDS011;1788;49.400;11.092;2024-03-06T09:32:25;31.10;;;15.03;;
3547;SDS011;1788;49.400;11.092;2024-03-06T09:34:52;32.70;;;14.67;;
3547;SDS011;1788;49.400;11.092;2024-03-06T09:37:19;30.23;;;13.57;;
3547;SDS011;1788;49.400;11.092;2024-03-06T09:39:46;31.70;;;14.83;;
3547;SDS011;1788;49.400;11.092;2024-03-06T09:42:14;32.57;;;13.80;;
3547;SDS011;1788;49.400;11.092;2024-03-06T09:44:40;31.73;;;16.00;;
3547;SDS011;1788;49.400;11.092;2024-03-06T09:47:07;30.93;;;13.63;;
3547;SDS011;1788;49.400;11.092;2024-03-06T09:49:34;33.87;;;15.93;;
3547;SDS011;1788;49.400;11.092;2024-03-06T09:52:01;35.40;;;17.67;;
3547;SDS011;1788;49.400;11.092;2024-03-06T09:54:28;33.43;;;14.37;;
3547;SDS011;1788;49.400;11.092;2024-03-06T09:56:55;33.37;;;15.20;;
3547;SDS011;1788;49.400;11.092;2024-03-06T09:59:22;35.33;;;15.23;;
3547;SDS011;1788;49.400;11.092;2024-03-06T10:06:42;33.03;;;14.33;;
3547;SDS011;1788;49.400;11.092;2024-03-06T10:09:09;37.50;;;14.30;;
3547;SDS011;1788;49.400;11.092;2024-03-06T10:14:03;30.97;;;15.83;;
3547;SDS011;1788;49.400;11.092;2024-03-06T10:16:29;28.97;;;14.53;;
3547;SDS011;1788;49.400;11.092;2024-03-06T10:18:57;25.80;;;11.93;;
3547;SDS011;1788;49.400;11.092;2024-03-06T10:23:50;33.93;;;16.13;;
3547;SDS011;1788;49.400;11.092;2024-03-06T10:26:17;26.77;;;13.63;;
3547;SDS011;1788;49.400;11.092;2024-03-06T10:28:44;41.57;;;16.60;;
3547;SDS011;1788;49.400;11.092;2024-03-06T10:31:10;28.00;;;15.00;;
3547;SDS011;1788;49.400;11.092;2024-03-06T10:33:36;30.20;;;14.37;;
3547;SDS011;1788;49.400;11.092;2024-03-06T10:36:03;27.60;;;13.90;;
3547;SDS011;1788;49.400;11.092;2024-03-06T10:38:30;27.17;;;13.10;;
3547;SDS011;1788;49.400;11.092;2024-03-06T10:40:56;27.30;;;14.20;;
3547;SDS011;1788;49.400;11.092;2024-03-06T10:43:23;32.57;;;14.10;;
3547;SDS011;1788;49.400;11.092;2024-03-06T10:45:51;32.63;;;14.57;;
3547;SDS011;1788;49.400;11.092;2024-03-06T10:48:17;25.07;;;13.03;;
3547;SDS011;1788;49.400;11.092;2024-03-06T10:50:45;30.90;;;15.57;;
3547;SDS011;1788;49.400;11.092;2024-03-06T10:53:12;30.60;;;14.00;;
3547;SDS011;1788;49.400;11.092;2024-03-06T10:55:38;31.57;;;12.90;;
3547;SDS011;1788;49.400;11.092;2024-03-06T10:58:05;25.40;;;12.43;;
3547;SDS011;1788;49.400;11.092;2024-03-06T11:00:32;26.23;;;13.17;;
3547;SDS011;1788;49.400;11.092;2024-03-06T11:02:59;30.10;;;13.70;;
3547;SDS011;1788;49.400;11.092;2024-03-06T11:05:26;27.57;;;14.87;;
3547;SDS011;1788;49.400;11.092;2024-03-06T11:07:53;26.17;;;13.63;;
3547;SDS011;1788;49.400;11.092;2024-03-06T11:12:47;29.70;;;13.93;;
3547;SDS011;1788;49.400;11.092;2024-03-06T11:15:14;27.17;;;13.83;;
3547;SDS011;1788;49.400;11.092;2024-03-06T11:17:41;26.77;;;12.60;;
3547;SDS011;1788;49.400;11.092;2024-03-06T11:20:08;30.27;;;13.60;;
3547;SDS011;1788;49.400;11.092;2024-03-06T11:25:01;35.40;;;15.20;;
3547;SDS011;1788;49.400;11.092;2024-03-06T11:27:27;26.70;;;12.13;;
3547;SDS011;1788;49.400;11.092;2024-03-06T11:32:22;25.40;;;13.03;;
3547;SDS011;1788;49.400;11.092;2024-03-06T11:34:48;28.57;;;13.83;;
3547;SDS011;1788;49.400;11.092;2024-03-06T11:37:15;28.33;;;13.17;;
3547;SDS011;1788;49.400;11.092;2024-03-06T11:39:41;27.70;;;13.87;;
3547;SDS011;1788;49.400;11.092;2024-03-06T11:42:08;26.40;;;13.90;;
3547;SDS011;1788;49.400;11.092;2024-03-06T11:44:35;25.70;;;13.27;;
3547;SDS011;1788;49.400;11.092;2024-03-06T11:47:02;28.17;;;13.60;;
3547;SDS011;1788;49.400;11.092;2024-03-06T11:49:29;26.50;;;13.67;;
3547;SDS011;1788;49.400;11.092;2024-03-06T11:51:56;30.07;;;13.37;;
3547;SDS011;1788;49.400;11.092;2024-03-06T11:54:22;39.27;;;16.57;;
3547;SDS011;1788;49.400;11.092;2024-03-06T11:56:49;32.30;;;14.70;;
3547;SDS011;1788;49.400;11.092;2024-03-06T11:59:15;30.67;;;14.23;;
3547;SDS011;1788;49.400;11.092;2024-03-06T12:01:41;25.90;;;13.93;;
3547;SDS011;1788;49.400;11.092;2024-03-06T12:04:09;28.77;;;14.17;;
3547;SDS011;1788;49.400;11.092;2024-03-06T12:06:37;29.73;;;14.03;;
3547;SDS011;1788;49.400;11.092;2024-03-06T12:09:04;28.30;;;13.93;;
3547;SDS011;1788;49.400;11.092;2024-03-06T12:11:30;26.10;;;12.60;;
3547;SDS011;1788;49.400;11.092;2024-03-06T12:13:57;29.43;;;13.83;;
3547;SDS011;1788;49.400;11.092;2024-03-06T12:16:24;30.33;;;12.90;;
3547;SDS011;1788;49.400;11.092;2024-03-06T12:21:18;20.00;;;11.43;;
3547;SDS011;1788;49.400;11.092;2024-03-06T12:23:45;21.97;;;12.03;;
3547;SDS011;1788;49.400;11.092;2024-03-06T12:26:12;20.07;;;10.57;;
3547;SDS011;1788;49.400;11.092;2024-03-06T12:28:39;23.37;;;11.67;;
3547;SDS011;1788;49.400;11.092;2024-03-06T12:31:06;18.07;;;9.70;;
3547;SDS011;1788;49.400;11.092;2024-03-06T12:33:33;19.57;;;11.00;;
3547;SDS011;1788;49.400;11.092;2024-03-06T12:36:01;15.00;;;8.60;;
3547;SDS011;1788;49.400;11.092;2024-03-06T12:38:28;22.77;;;11.40;;
3547;SDS011;1788;49.400;11.092;2024-03-06T12:40:54;25.40;;;11.63;;
3547;SDS011;1788;49.400;11.092;2024-03-06T12:43:21;24.83;;;11.63;;
3547;SDS011;1788;49.400;11.092;2024-03-06T12:45:48;14.70;;;8.57;;
3547;SDS011;1788;49.400;11.092;2024-03-06T12:48:15;24.40;;;11.93;;
3547;SDS011;1788;49.400;11.092;2024-03-06T12:50:42;15.77;;;8.73;;
3547;SDS011;1788;49.400;11.092;2024-03-06T12:53:09;20.67;;;10.77;;
3547;SDS011;1788;49.400;11.092;2024-03-06T12:55:36;24.30;;;11.73;;
3547;SDS011;1788;49.400;11.092;2024-03-06T12:58:03;17.70;;;10.93;;
3547;SDS011;1788;49.400;11.092;2024-03-06T13:00:30;15.70;;;7.93;;
3547;SDS011;1788;49.400;11.092;2024-03-06T13:02:57;19.83;;;9.90;;
3547;SDS011;1788;49.400;11.092;2024-03-06T13:05:25;22.17;;;10.13;;
3547;SDS011;1788;49.400;11.092;2024-03-06T13:07:51;22.83;;;10.30;;
3547;SDS011;1788;49.400;11.092;2024-03-06T13:10:19;21.17;;;10.57;;
3547;SDS011;1788;49.400;11.092;2024-03-06T13:12:45;21.80;;;10.40;;
3547;SDS011;1788;49.400;11.092;2024-03-06T13:15:12;18.77;;;10.13;;
3547;SDS011;1788;49.400;11.092;2024-03-06T13:17:38;19.60;;;10.17;;
3547;SDS011;1788;49.400;11.092;2024-03-06T13:20:06;23.37;;;12.47;;
3547;SDS011;1788;49.400;11.092;2024-03-06T13:22:32;25.13;;;12.00;;
3547;SDS011;1788;49.400;11.092;2024-03-06T13:24:59;24.97;;;10.33;;
3547;SDS011;1788;49.400;11.092;2024-03-06T13:27:26;15.50;;;8.03;;
3547;SDS011;1788;49.400;11.092;2024-03-06T13:29:53;17.00;;;9.10;;
3547;SDS011;1788;49.400;11.092;2024-03-06T13:32:20;15.37;;;8.73;;
3547;SDS011;1788;49.400;11.092;2024-03-06T13:34:46;22.93;;;10.77;;
3547;SDS011;1788;49.400;11.092;2024-03-06T13:37:14;24.17;;;11.43;;
3547;SDS011;1788;49.400;11.092;2024-03-06T13:39:39;15.93;;;8.20;;
3547;SDS011;1788;49.400;11.092;2024-03-06T13:42:07;25.17;;;10.90;;
3547;SDS011;1788;49.400;11.092;2024-03-06T13:44:35;20.87;;;11.80;;
3547;SDS011;1788;49.400;11.092;2024-03-06T13:47:01;15.50;;;8.37;;
3547;SDS011;1788;49.400;11.092;2024-03-06T13:51:54;19.97;;;9.70;;
3547;SDS011;1788;49.400;11.092;2024-03-06T13:54:21;18.00;;;10.80;;
3547;SDS011;1788;49.400;11.092;2024-03-06T13:56:47;20.73;;;10.63;;
3547;SDS011;1788;49.400;11.092;2024-03-06T13:59:15;24.73;;;11.57;;
3547;SDS011;1788;49.400;11.092;2024-03-06T14:01:41;23.20;;;11.43;;
3547;SDS011;1788;49.400;11.092;2024-03-06T14:04:08;21.87;;;10.10;;
3547;SDS011;1788;49.400;11.092;2024-03-06T14:06:35;20.63;;;11.37;;
3547;SDS011;1788;49.400;11.092;2024-03-06T14:09:01;20.83;;;11.10;;
3547;SDS011;1788;49.400;11.092;2024-03-06T14:11:28;22.17;;;11.23;;
3547;SDS011;1788;49.400;11.092;2024-03-06T14:13:54;21.03;;;11.17;;
3547;SDS011;1788;49.400;11.092;2024-03-06T14:16:21;21.57;;;11.03;;
3547;SDS011;1788;49.400;11.092;2024-03-06T14:18:48;23.47;;;11.37;;
3547;SDS011;1788;49.400;11.092;2024-03-06T14:21:14;24.03;;;11.20;;
3547;SDS011;1788;49.400;11.092;2024-03-06T14:23:41;26.10;;;11.27;;
3547;SDS011;1788;49.400;11.092;2024-03-06T14:26:08;20.77;;;11.87;;
3547;SDS011;1788;49.400;11.092;2024-03-06T14:28:35;21.53;;;10.97;;
3547;SDS011;1788;49.400;11.092;2024-03-06T14:31:02;23.40;;;11.87;;
3547;SDS011;1788;49.400;11.092;2024-03-06T14:33:29;21.13;;;11.50;;
3547;SDS011;1788;49.400;11.092;2024-03-06T14:35:56;23.60;;;10.57;;
3547;SDS011;1788;49.400;11.092;2024-03-06T14:38:23;18.10;;;11.10;;
3547;SDS011;1788;49.400;11.092;2024-03-06T14:40:50;22.00;;;11.97;;
3547;SDS011;1788;49.400;11.092;2024-03-06T14:43:17;21.37;;;10.57;;
3547;SDS011;1788;49.400;11.092;2024-03-06T14:45:45;24.93;;;11.70;;
3547;SDS011;1788;49.400;11.092;2024-03-06T14:48:11;21.83;;;10.53;;
3547;SDS011;1788;49.400;11.092;2024-03-06T14:50:38;25.20;;;11.70;;
3547;SDS011;1788;49.400;11.092;2024-03-06T14:53:05;27.07;;;12.33;;
3547;SDS011;1788;49.400;11.092;2024-03-06T14:55:32;24.60;;;13.10;;
3547;SDS011;1788;49.400;11.092;2024-03-06T14:57:59;26.30;;;12.40;;